Time;durP1;ratioP1;P1;durP2;ratioP2;P2;SDS_P1;SDS_P2;PMS_P1;PMS_P2;Temp;Humidity;BMP_temperature;BMP_pressure;BME280_temperature;BME280_humidity;BME280_pressure;Samples;Min_cycle;Max_cycle;Signal;HPM_P1;HPM_P2
2022/01/27 00:02:32;;;;;;;41.60;29.88;;;10.60;70.00;;;;;;4953278;29;19917;-64
2022/01/27 00:05:14;;;;;;;38.53;29.60;;;10.60;70.20;;;;;;4954164;29;20118;-64
2022/01/27 00:07:41;;;;;;;46.60;31.05;;;10.60;70.20;;;;;;4954525;29;20031;-64
2022/01/27 00:12:36;;;;;;;44.40;31.08;;;10.70;70.10;;;;;;4954537;28;20027;-64
2022/01/27 00:15:09;;;;;;;45.67;31.65;;;10.70;70.10;;;;;;4954264;29;20050;-63
2022/01/27 00:17:42;;;;;;;43.83;30.75;;;10.70;70.30;;;;;;4954137;29;20158;-65
2022/01/27 00:20:08;;;;;;;48.25;30.85;;;10.70;70.20;;;;;;4954302;29;20452;-66
2022/01/27 00:22:34;;;;;;;39.55;29.35;;;10.60;70.20;;;;;;4954287;28;20071;-65
2022/01/27 00:25:02;;;;;;;42.78;32.42;;;10.60;70.30;;;;;;4954476;29;20050;-66
2022/01/27 00:27:28;;;;;;;42.88;31.02;;;10.60;70.20;;;;;;4954455;28;20046;-65
2022/01/27 00:29:54;;;;;;;43.42;31.05;;;10.60;70.50;;;;;;4957720;29;20023;-67
2022/01/27 00:32:20;;;;;;;39.75;30.48;;;10.40;70.60;;;;;;4958253;29;20464;-65
2022/01/27 00:34:46;;;;;;;44.97;30.98;;;10.40;70.50;;;;;;4958271;29;20416;-65
2022/01/27 00:37:12;;;;;;;42.55;30.40;;;10.30;70.50;;;;;;4958185;29;20147;-64
2022/01/27 00:39:37;;;;;;;40.92;29.48;;;10.30;70.40;;;;;;4958114;28;20468;-64
2022/01/27 00:42:03;;;;;;;39.72;28.58;;;10.30;70.60;;;;;;4956890;29;20043;-65
2022/01/27 00:44:29;;;;;;;38.28;28.67;;;10.30;70.60;;;;;;4958112;28;20392;-64
2022/01/27 00:46:55;;;;;;;38.88;29.63;;;10.20;71.00;;;;;;4958048;29;20027;-64
2022/01/27 00:49:21;;;;;;;40.53;29.02;;;10.20;70.70;;;;;;4958016;29;20465;-66
2022/01/27 00:51:47;;;;;;;40.90;28.17;;;10.10;70.60;;;;;;4957852;28;20098;-65
2022/01/27 00:54:20;;;;;;;36.60;28.65;;;10.00;70.60;;;;;;4957730;29;20361;-67
2022/01/27 00:56:56;;;;;;;38.83;28.77;;;10.00;70.90;;;;;;4957512;28;20075;-64
2022/01/27 00:59:53;;;;;;;41.97;28.38;;;9.90;72.10;;;;;;4957777;28;20118;-65
2022/01/27 01:05:03;;;;;;;36.78;27.50;;;9.90;72.60;;;;;;4957936;29;20023;-65
2022/01/27 01:07:34;;;;;;;38.45;26.85;;;9.90;72.10;;;;;;4957719;29;20090;-64
2022/01/27 01:15:19;;;;;;;44.92;26.20;;;9.80;71.60;;;;;;4957677;29;20392;-65
2022/01/27 01:18:02;;;;;;;36.70;25.73;;;9.80;71.50;;;;;;4957614;28;20081;-65
2022/01/27 01:33:58;;;;;;;41.33;27.48;;;9.40;72.70;;;;;;4957306;28;20360;-65
2022/01/27 01:37:08;;;;;;;35.38;26.05;;;9.40;72.50;;;;;;4957236;29;20035;-65
2022/01/27 01:39:12;;;;;;;35.80;25.88;;;9.40;72.40;;;;;;4950890;28;20027;-65
2022/01/27 01:41:39;;;;;;;44.30;27.45;;;9.30;72.30;;;;;;4957041;29;20043;-65
2022/01/27 01:44:05;;;;;;;34.13;24.35;;;9.40;72.40;;;;;;4957064;29;20031;-65
2022/01/27 01:46:31;;;;;;;34.38;24.80;;;9.40;71.90;;;;;;4957101;29;20389;-66
2022/01/27 01:48:57;;;;;;;35.08;24.23;;;9.40;71.90;;;;;;4956984;28;20126;-64
2022/01/27 01:51:29;;;;;;;31.02;22.25;;;9.40;72.00;;;;;;4956811;29;20023;-64
2022/01/27 01:53:55;;;;;;;30.98;21.60;;;9.30;71.80;;;;;;4956850;29;20035;-64
2022/01/27 01:56:22;;;;;;;30.85;20.98;;;9.20;72.00;;;;;;4957189;28;20036;-65
2022/01/27 01:58:48;;;;;;;26.58;19.70;;;9.10;72.00;;;;;;4956814;29;20061;-66
2022/01/27 02:01:15;;;;;;;31.05;21.05;;;9.00;72.70;;;;;;4956577;28;20065;-67
2022/01/27 02:03:40;;;;;;;28.92;20.30;;;9.00;72.20;;;;;;4956486;29;20053;-64
2022/01/27 02:06:08;;;;;;;25.88;19.75;;;8.90;72.10;;;;;;4956523;29;20023;-64
2022/01/27 02:19:09;;;;;;;23.77;17.23;;;8.70;72.30;;;;;;4956708;28;20042;-64
2022/01/27 02:21:45;;;;;;;25.25;18.30;;;8.70;72.20;;;;;;4956257;29;20106;-65
2022/01/27 02:24:11;;;;;;;25.45;18.60;;;8.70;72.50;;;;;;4956186;29;20042;-64
2022/01/27 02:26:37;;;;;;;23.45;15.90;;;8.70;72.20;;;;;;4956185;29;20086;-64
2022/01/27 02:29:03;;;;;;;22.75;17.23;;;8.70;71.90;;;;;;4938938;28;20036;-66
2022/01/27 02:31:28;;;;;;;20.90;14.50;;;8.70;71.70;;;;;;4956162;29;20030;-65
2022/01/27 02:33:58;;;;;;;21.35;15.38;;;8.70;71.80;;;;;;4956116;29;20106;-65
2022/01/27 02:36:23;;;;;;;21.75;14.63;;;8.70;71.70;;;;;;4955932;29;20637;-66
2022/01/27 02:38:49;;;;;;;19.90;13.40;;;8.70;71.50;;;;;;4956005;29;20031;-64
2022/01/27 02:41:16;;;;;;;18.20;12.73;;;8.60;71.10;;;;;;4955809;29;20035;-64
2022/01/27 02:43:43;;;;;;;18.13;12.85;;;8.50;70.90;;;;;;4955770;29;20196;-64
2022/01/27 02:46:20;;;;;;;18.67;13.05;;;8.40;71.50;;;;;;4938498;29;20432;-65
2022/01/27 02:48:45;;;;;;;18.23;12.60;;;8.40;71.20;;;;;;4955665;29;20036;-65
2022/01/27 02:51:12;;;;;;;18.48;13.88;;;8.40;71.40;;;;;;4954938;28;20031;-66
2022/01/27 02:53:37;;;;;;;18.20;13.18;;;8.30;71.50;;;;;;4955590;29;20417;-65
2022/01/27 02:56:03;;;;;;;21.60;13.25;;;8.30;71.60;;;;;;4955757;28;20113;-64
2022/01/27 02:58:29;;;;;;;21.02;14.23;;;8.20;71.70;;;;;;4955636;28;20119;-64
2022/01/27 03:00:54;;;;;;;18.75;13.75;;;8.10;71.50;;;;;;4955716;29;20038;-64
2022/01/27 03:03:20;;;;;;;20.42;14.07;;;8.00;71.40;;;;;;4955495;29;20431;-65
2022/01/27 03:05:47;;;;;;;18.20;13.27;;;8.10;72.00;;;;;;4955307;29;20031;-65
2022/01/27 03:08:13;;;;;;;19.20;13.82;;;8.10;71.90;;;;;;4955290;28;20037;-64
2022/01/27 03:10:48;;;;;;;20.77;14.20;;;8.10;72.00;;;;;;4955464;28;20027;-65
2022/01/27 03:13:14;;;;;;;19.73;13.18;;;8.20;71.50;;;;;;4955364;29;20357;-64
2022/01/27 03:15:39;;;;;;;18.45;13.30;;;8.20;71.50;;;;;;4938163;29;20039;-66
2022/01/27 03:18:05;;;;;;;19.20;13.23;;;8.20;71.70;;;;;;4955370;29;20066;-68
2022/01/27 03:20:34;;;;;;;17.48;12.73;;;8.20;71.50;;;;;;4955319;28;20049;-67
2022/01/27 03:23:01;;;;;;;18.67;12.88;;;8.10;71.90;;;;;;4955028;29;20048;-64
2022/01/27 03:25:27;;;;;;;18.98;13.02;;;7.90;71.50;;;;;;4955400;29;20031;-64
2022/01/27 03:27:53;;;;;;;17.50;12.27;;;7.90;71.70;;;;;;4955088;29;20035;-67
2022/01/27 03:30:18;;;;;;;16.73;12.00;;;7.90;71.70;;;;;;4955013;28;20027;-64
2022/01/27 03:32:44;;;;;;;18.60;11.82;;;7.90;71.90;;;;;;4937642;29;20090;-64
2022/01/27 03:35:10;;;;;;;15.98;11.68;;;7.80;71.80;;;;;;4954908;29;20031;-65
2022/01/27 03:37:36;;;;;;;17.73;11.65;;;7.80;72.10;;;;;;4954786;29;20098;-64
2022/01/27 03:40:04;;;;;;;16.15;11.70;;;7.80;72.30;;;;;;4954936;29;20110;-65
2022/01/27 03:42:30;;;;;;;15.20;11.48;;;7.80;72.30;;;;;;4954661;29;20039;-64
2022/01/27 03:44:56;;;;;;;16.27;12.55;;;7.80;72.20;;;;;;4954896;29;20377;-64
2022/01/27 03:47:22;;;;;;;17.10;13.18;;;7.80;72.10;;;;;;4954897;29;20034;-66
2022/01/27 03:49:50;;;;;;;18.23;12.45;;;7.70;72.40;;;;;;4937640;29;20023;-68
2022/01/27 03:52:18;;;;;;;18.27;12.32;;;7.70;73.10;;;;;;4954661;28;20086;-64
2022/01/27 03:54:43;;;;;;;21.88;12.10;;;7.70;72.50;;;;;;4954729;28;20055;-65
2022/01/27 03:57:09;;;;;;;18.40;11.63;;;7.70;73.20;;;;;;4954593;29;20133;-64
2022/01/27 03:59:35;;;;;;;26.05;12.40;;;7.70;72.70;;;;;;4954878;29;20512;-63
2022/01/27 04:02:04;;;;;;;17.90;11.20;;;7.70;73.60;;;;;;4954508;28;20028;-65
2022/01/27 04:04:30;;;;;;;16.52;10.70;;;7.70;73.40;;;;;;4954775;28;20031;-65
2022/01/27 04:06:57;;;;;;;13.95;10.95;;;7.70;72.50;;;;;;4953430;28;20035;-65
2022/01/27 04:09:24;;;;;;;17.25;11.48;;;7.60;72.50;;;;;;4954775;29;20031;-65
2022/01/27 04:11:50;;;;;;;14.63;11.05;;;7.60;73.40;;;;;;4954426;29;20035;-65
2022/01/27 04:14:16;;;;;;;19.77;10.75;;;7.60;72.90;;;;;;4954442;29;20030;-65
2022/01/27 04:16:42;;;;;;;17.58;11.70;;;7.50;72.90;;;;;;4954589;29;20035;-64
2022/01/27 04:19:07;;;;;;;17.88;12.32;;;7.50;73.40;;;;;;4954410;29;20047;-64
2022/01/27 04:21:33;;;;;;;17.92;12.02;;;7.50;73.50;;;;;;4954556;29;20031;-64
2022/01/27 04:23:59;;;;;;;16.55;12.35;;;7.50;73.60;;;;;;4954625;28;20060;-65
2022/01/27 04:26:41;;;;;;;16.80;12.10;;;7.50;73.70;;;;;;4954777;29;20039;-65
2022/01/27 04:29:07;;;;;;;15.80;11.10;;;7.60;73.20;;;;;;4954386;28;20027;-65
2022/01/27 04:31:33;;;;;;;16.92;10.95;;;7.40;72.30;;;;;;4953905;29;20094;-64
2022/01/27 04:33:59;;;;;;;13.85;10.80;;;7.20;73.10;;;;;;4954382;28;20142;-65
2022/01/27 04:36:30;;;;;;;16.10;10.55;;;7.10;73.60;;;;;;4954412;28;20038;-65
2022/01/27 04:39:50;;;;;;;16.23;11.00;;;7.10;73.90;;;;;;4954217;28;20472;-65
2022/01/27 04:41:55;;;;;;;15.57;10.25;;;7.10;74.20;;;;;;4948593;29;20043;-64
2022/01/27 04:46:58;;;;;;;15.85;11.43;;;7.10;73.70;;;;;;4954124;29;20023;-67
2022/01/27 04:49:23;;;;;;;14.70;10.02;;;7.20;73.70;;;;;;4954282;29;20453;-65
2022/01/27 04:51:49;;;;;;;18.95;10.95;;;7.20;73.40;;;;;;4954420;28;20023;-64
2022/01/27 04:54:41;;;;;;;14.55;10.85;;;7.20;73.30;;;;;;4954822;29;20471;-65
2022/01/27 04:57:05;;;;;;;14.70;10.75;;;7.10;73.60;;;;;;4953647;29;20079;-64
2022/01/27 04:59:37;;;;;;;18.40;11.25;;;7.10;74.20;;;;;;4954333;28;20032;-64
2022/01/27 05:02:12;;;;;;;18.02;10.32;;;7.10;74.30;;;;;;4953921;28;20360;-65
2022/01/27 05:04:42;;;;;;;16.17;11.38;;;7.00;74.40;;;;;;4954171;28;20118;-64
2022/01/27 05:07:08;;;;;;;21.73;11.05;;;6.90;74.70;;;;;;4954099;29;20110;-65
2022/01/27 05:09:35;;;;;;;18.63;11.93;;;6.90;75.40;;;;;;4954099;28;20102;-66
2022/01/27 05:12:09;;;;;;;17.52;11.75;;;6.90;75.60;;;;;;4953960;28;20028;-64
2022/01/27 05:14:35;;;;;;;17.27;11.07;;;6.90;75.40;;;;;;4937670;29;20459;-65
2022/01/27 05:17:01;;;;;;;17.85;11.52;;;7.00;75.40;;;;;;4957487;28;20027;-65
2022/01/27 05:19:26;;;;;;;19.70;11.90;;;7.00;75.20;;;;;;4957462;28;20408;-64
2022/01/27 05:21:52;;;;;;;18.92;11.65;;;7.00;75.20;;;;;;4957334;28;20102;-65
2022/01/27 05:24:19;;;;;;;17.45;11.93;;;7.10;74.90;;;;;;4957206;28;20031;-64
2022/01/27 05:26:45;;;;;;;17.40;12.10;;;7.00;75.40;;;;;;4956295;29;20089;-64
2022/01/27 05:29:11;;;;;;;16.60;11.45;;;7.00;75.40;;;;;;4957288;28;20527;-65
2022/01/27 05:31:38;;;;;;;15.85;11.57;;;6.90;75.50;;;;;;4957422;29;20031;-65
2022/01/27 05:34:05;;;;;;;17.52;11.43;;;6.90;75.80;;;;;;4956904;29;20038;-65
2022/01/27 05:36:31;;;;;;;18.65;11.63;;;7.00;75.80;;;;;;4956174;28;20027;-71
2022/01/27 05:38:57;;;;;;;16.70;11.38;;;7.00;75.30;;;;;;4957261;29;20027;-65
2022/01/27 05:41:23;;;;;;;19.20;11.60;;;7.00;75.50;;;;;;4957185;29;20369;-64
2022/01/27 05:43:49;;;;;;;17.17;10.98;;;7.00;75.30;;;;;;4957070;29;20065;-65
2022/01/27 05:46:14;;;;;;;15.80;12.07;;;7.00;75.30;;;;;;4957110;28;20027;-64
2022/01/27 05:48:40;;;;;;;19.50;10.23;;;6.90;75.80;;;;;;4956889;29;20106;-69
2022/01/27 05:51:06;;;;;;;16.17;11.63;;;6.90;75.40;;;;;;4956936;29;20542;-66
2022/01/27 05:53:32;;;;;;;16.88;11.27;;;6.80;75.30;;;;;;4956787;28;20027;-64
2022/01/27 05:55:59;;;;;;;15.35;10.80;;;6.80;76.10;;;;;;4939661;29;20032;-66
2022/01/27 05:58:25;;;;;;;17.25;11.45;;;6.70;76.20;;;;;;4956608;29;20546;-65
2022/01/27 06:00:51;;;;;;;18.85;10.82;;;6.80;76.40;;;;;;4956710;28;20027;-65
2022/01/27 06:03:17;;;;;;;20.52;11.23;;;6.80;75.80;;;;;;4954884;28;20461;-65
2022/01/27 06:05:43;;;;;;;17.30;11.32;;;6.80;76.00;;;;;;4956491;29;20181;-64
2022/01/27 06:08:09;;;;;;;15.50;9.95;;;6.90;75.80;;;;;;4956331;28;20023;-66
2022/01/27 06:10:34;;;;;;;23.70;11.60;;;6.80;75.50;;;;;;4956227;29;20031;-65
2022/01/27 06:13:00;;;;;;;15.18;11.00;;;6.70;75.50;;;;;;4956127;28;20480;-65
2022/01/27 06:15:27;;;;;;;17.27;9.70;;;6.70;76.10;;;;;;4955335;29;20032;-65
2022/01/27 06:17:53;;;;;;;14.52;10.13;;;6.70;76.00;;;;;;4956334;28;20046;-64
2022/01/27 06:20:20;;;;;;;14.80;10.07;;;6.60;75.80;;;;;;4956297;29;20062;-65
2022/01/27 06:22:47;;;;;;;15.50;10.75;;;6.50;76.30;;;;;;4956223;28;20035;-65
2022/01/27 06:25:14;;;;;;;13.60;9.52;;;6.50;76.60;;;;;;4956081;28;20030;-65
2022/01/27 06:27:40;;;;;;;16.55;10.02;;;6.50;76.80;;;;;;4956085;28;20027;-64
2022/01/27 06:30:08;;;;;;;15.68;10.63;;;6.50;76.80;;;;;;4955927;29;20062;-64
2022/01/27 06:32:35;;;;;;;19.23;11.52;;;6.60;76.90;;;;;;4955809;28;20113;-65
2022/01/27 06:35:03;;;;;;;14.82;9.60;;;6.60;76.50;;;;;;4956038;29;20353;-65
2022/01/27 06:37:33;;;;;;;15.98;10.25;;;6.60;76.60;;;;;;4938655;29;20119;-65
2022/01/27 06:39:59;;;;;;;16.60;10.45;;;6.60;75.90;;;;;;4955596;29;20115;-65
2022/01/27 06:42:26;;;;;;;15.93;10.32;;;6.60;76.30;;;;;;4955526;29;20046;-64
2022/01/27 06:44:53;;;;;;;18.15;10.45;;;6.60;76.30;;;;;;4955682;29;20032;-65
2022/01/27 06:47:18;;;;;;;16.73;10.80;;;6.70;76.20;;;;;;4938339;28;20031;-65
2022/01/27 06:49:44;;;;;;;27.00;11.82;;;6.70;76.00;;;;;;4955547;28;20028;-65
2022/01/27 06:52:11;;;;;;;20.35;12.15;;;6.70;75.90;;;;;;4955218;28;20023;-64
2022/01/27 06:54:36;;;;;;;22.90;12.55;;;6.70;76.00;;;;;;4953849;29;20543;-68
2022/01/27 06:57:03;;;;;;;19.90;12.18;;;6.70;75.90;;;;;;4955126;28;20130;-69
2022/01/27 06:59:30;;;;;;;21.45;11.07;;;6.70;75.50;;;;;;4955685;29;20082;-68
2022/01/27 07:01:55;;;;;;;18.48;11.75;;;6.80;75.80;;;;;;4955494;28;20139;-67
2022/01/27 07:04:21;;;;;;;19.17;12.00;;;6.90;75.60;;;;;;4955449;28;20106;-66
2022/01/27 07:06:48;;;;;;;19.15;12.38;;;7.00;75.30;;;;;;4955553;29;20028;-69
2022/01/27 07:09:14;;;;;;;18.45;12.02;;;7.10;74.90;;;;;;4938272;29;20089;-70
2022/01/27 07:11:40;;;;;;;20.98;12.68;;;7.10;74.80;;;;;;4955406;28;20027;-69
2022/01/27 07:14:05;;;;;;;17.63;12.50;;;7.10;74.80;;;;;;4955278;28;20027;-69
2022/01/27 07:16:33;;;;;;;24.50;12.75;;;7.20;74.90;;;;;;4955870;29;20481;-71
2022/01/27 07:18:59;;;;;;;22.10;13.18;;;7.30;74.70;;;;;;4955246;29;20058;-71
2022/01/27 07:21:24;;;;;;;19.75;13.70;;;7.30;74.30;;;;;;4955029;29;20488;-68
2022/01/27 07:23:50;;;;;;;21.75;13.90;;;7.40;74.40;;;;;;4955047;29;20035;-67
2022/01/27 07:26:16;;;;;;;19.63;14.15;;;7.40;74.20;;;;;;4955012;29;20038;-70
2022/01/27 07:28:42;;;;;;;21.10;14.48;;;7.40;74.60;;;;;;4955066;29;20051;-68
2022/01/27 07:31:08;;;;;;;20.40;14.25;;;7.40;74.60;;;;;;4954981;29;20103;-69
2022/01/27 07:33:34;;;;;;;25.63;16.08;;;7.50;74.60;;;;;;4954659;28;20083;-69
2022/01/27 07:35:59;;;;;;;21.52;14.27;;;7.60;74.10;;;;;;4954785;29;20042;-67
2022/01/27 07:38:27;;;;;;;26.05;14.68;;;7.60;74.00;;;;;;4952862;28;20039;-70
2022/01/27 07:40:53;;;;;;;19.77;13.73;;;7.70;74.10;;;;;;4954873;29;20039;-68
2022/01/27 07:43:18;;;;;;;22.67;15.07;;;7.70;73.80;;;;;;4954522;29;20035;-66
2022/01/27 07:45:44;;;;;;;25.52;14.20;;;7.80;74.10;;;;;;4954754;29;20023;-68
2022/01/27 07:48:10;;;;;;;23.98;15.18;;;7.80;73.30;;;;;;4954745;29;20061;-67
2022/01/27 07:50:36;;;;;;;23.92;14.73;;;7.80;72.80;;;;;;4954264;29;20485;-67
2022/01/27 07:53:02;;;;;;;23.50;14.00;;;7.90;72.90;;;;;;4954323;28;20019;-67
2022/01/27 07:55:28;;;;;;;26.50;14.63;;;7.90;72.30;;;;;;4954265;29;20391;-69
2022/01/27 07:57:55;;;;;;;23.63;14.30;;;8.00;72.30;;;;;;4953899;29;20118;-69
2022/01/27 08:00:22;;;;;;;20.30;14.38;;;8.00;71.90;;;;;;4954429;29;20035;-69
2022/01/27 08:02:49;;;;;;;21.92;15.15;;;8.00;71.80;;;;;;4954076;29;20058;-68
2022/01/27 08:05:14;;;;;;;23.25;15.27;;;8.00;72.30;;;;;;4952866;29;20031;-67
2022/01/27 08:07:40;;;;;;;24.55;15.95;;;7.90;71.80;;;;;;4937125;29;20023;-68
2022/01/27 08:10:06;;;;;;;23.05;16.27;;;8.00;72.20;;;;;;4953815;29;20441;-70
2022/01/27 08:12:32;;;;;;;22.55;14.15;;;8.00;72.30;;;;;;4954238;29;20424;-70
2022/01/27 08:14:57;;;;;;;27.30;16.05;;;8.00;72.20;;;;;;4954121;29;20055;-69
2022/01/27 08:17:23;;;;;;;25.30;15.63;;;8.10;72.00;;;;;;4954251;29;20083;-68
2022/01/27 08:19:50;;;;;;;19.27;13.20;;;8.10;72.00;;;;;;4954326;28;20417;-70
2022/01/27 08:22:16;;;;;;;18.70;14.07;;;8.00;71.60;;;;;;4954236;29;20042;-73
2022/01/27 08:24:42;;;;;;;17.13;12.75;;;8.00;71.80;;;;;;4937270;29;20377;-71
2022/01/27 08:27:13;;;;;;;21.40;12.88;;;8.00;71.40;;;;;;4953076;29;20059;-68
2022/01/27 08:29:44;;;;;;;23.50;13.05;;;8.00;72.10;;;;;;4936878;29;20023;-72
2022/01/27 08:32:16;;;;;;;22.50;13.20;;;7.90;72.00;;;;;;4936910;29;20342;-68
2022/01/27 08:34:44;;;;;;;20.00;13.50;;;7.90;71.10;;;;;;4955105;29;20542;-71
2022/01/27 08:37:17;;;;;;;18.17;12.55;;;7.80;71.10;;;;;;4936820;29;20039;-68
2022/01/27 08:39:43;;;;;;;20.08;13.07;;;7.80;71.10;;;;;;4937016;29;20063;-68
2022/01/27 08:42:09;;;;;;;19.33;13.25;;;7.90;71.20;;;;;;4937190;29;20055;-73
2022/01/27 08:44:36;;;;;;;22.00;13.63;;;7.90;71.50;;;;;;4954891;28;20031;-67
2022/01/27 08:47:03;;;;;;;24.30;14.20;;;8.00;71.20;;;;;;4957119;28;20102;-72
2022/01/27 08:49:29;;;;;;;19.75;13.65;;;8.00;71.10;;;;;;4955642;28;20035;-71
2022/01/27 08:51:57;;;;;;;20.25;13.48;;;8.10;71.20;;;;;;4958394;29;20394;-69
2022/01/27 08:54:24;;;;;;;18.73;12.93;;;8.20;70.90;;;;;;4956442;29;20067;-70
2022/01/27 08:56:50;;;;;;;25.70;13.90;;;8.30;70.70;;;;;;4939903;29;20110;-71
2022/01/27 08:59:16;;;;;;;25.00;13.20;;;8.30;70.50;;;;;;4957441;28;20031;-68
2022/01/27 09:01:45;;;;;;;21.20;13.23;;;8.40;70.70;;;;;;4957542;29;20362;-70
2022/01/27 09:04:11;;;;;;;21.55;12.75;;;8.50;70.90;;;;;;4955786;28;20031;-70
2022/01/27 09:06:40;;;;;;;20.10;13.30;;;8.50;70.60;;;;;;4957512;28;20508;-68
2022/01/27 09:09:06;;;;;;;20.30;13.43;;;8.50;71.00;;;;;;4957528;28;20028;-69
2022/01/27 09:11:33;;;;;;;17.67;12.50;;;8.50;70.30;;;;;;4957671;28;20023;-68
2022/01/27 09:14:02;;;;;;;18.08;12.20;;;8.50;70.50;;;;;;4957020;29;20162;-68
2022/01/27 09:16:29;;;;;;;19.25;13.63;;;8.60;70.50;;;;;;4940243;29;20093;-74
2022/01/27 09:18:57;;;;;;;18.50;12.43;;;8.60;70.60;;;;;;4940025;29;20035;-67
2022/01/27 09:21:27;;;;;;;19.58;13.57;;;8.70;70.40;;;;;;4957086;28;20491;-67
2022/01/27 09:23:53;;;;;;;15.85;12.00;;;8.80;70.40;;;;;;4956663;29;20075;-69
2022/01/27 09:26:59;;;;;;;21.52;13.93;;;8.90;70.10;;;;;;4956839;29;20418;-67
2022/01/27 09:29:11;;;;;;;22.23;13.27;;;8.90;70.10;;;;;;4954840;29;20035;-68
2022/01/27 09:31:37;;;;;;;18.23;12.73;;;9.00;69.90;;;;;;4957176;28;20023;-69
2022/01/27 09:34:03;;;;;;;19.05;13.60;;;9.20;69.90;;;;;;4956919;29;20038;-71
2022/01/27 09:36:30;;;;;;;20.27;13.82;;;9.20;69.60;;;;;;4939420;29;20031;-68
2022/01/27 09:38:56;;;;;;;21.00;13.88;;;9.40;69.20;;;;;;4956859;28;20055;-67
2022/01/27 09:41:24;;;;;;;19.25;12.68;;;9.40;68.80;;;;;;4955347;28;20031;-69
2022/01/27 09:43:53;;;;;;;19.05;12.75;;;9.50;68.90;;;;;;4955332;29;20031;-68
2022/01/27 09:46:20;;;;;;;20.45;15.02;;;9.50;68.60;;;;;;4957193;29;20015;-71
2022/01/27 09:48:49;;;;;;;20.42;13.93;;;9.60;68.70;;;;;;4956566;29;20452;-70
2022/01/27 09:51:39;;;;;;;20.58;14.15;;;9.80;68.50;;;;;;4939421;29;20035;-67
2022/01/27 09:54:05;;;;;;;20.35;12.90;;;9.80;68.20;;;;;;4956783;29;20028;-68
2022/01/27 09:56:32;;;;;;;23.25;13.15;;;9.80;68.00;;;;;;4956439;29;20058;-67
2022/01/27 09:58:57;;;;;;;21.98;13.93;;;9.90;67.90;;;;;;4956773;28;20121;-68
2022/01/27 10:01:23;;;;;;;18.60;12.63;;;10.00;66.70;;;;;;4956327;28;20125;-68
2022/01/27 10:04:01;;;;;;;19.77;12.48;;;10.10;66.60;;;;;;4956127;29;20121;-68
2022/01/27 10:06:33;;;;;;;17.35;12.13;;;10.20;66.30;;;;;;4956261;29;20027;-69
2022/01/27 10:09:19;;;;;;;19.70;13.18;;;10.30;66.30;;;;;;4956208;28;20063;-75
2022/01/27 10:11:48;;;;;;;18.80;12.75;;;10.30;65.80;;;;;;4956471;28;20031;-68
2022/01/27 10:14:32;;;;;;;18.63;13.85;;;10.40;65.80;;;;;;4956361;29;20146;-69
2022/01/27 10:17:02;;;;;;;22.45;14.68;;;10.60;64.90;;;;;;4956643;29;20389;-69
2022/01/27 10:19:53;;;;;;;18.90;12.85;;;10.60;64.70;;;;;;4955089;28;20035;-67
2022/01/27 10:22:19;;;;;;;23.10;14.25;;;10.70;65.00;;;;;;4955351;28;20420;-68
2022/01/27 10:24:44;;;;;;;18.45;13.25;;;10.80;64.50;;;;;;4956324;28;20023;-70
2022/01/27 10:33:03;;;;;;;21.10;13.40;;;11.00;63.80;;;;;;4956319;29;20031;-69
2022/01/27 10:35:30;;;;;;;22.00;13.40;;;11.00;64.10;;;;;;4956164;28;20062;-70
2022/01/27 10:38:06;;;;;;;23.38;14.38;;;11.00;64.10;;;;;;4956291;28;20031;-69
2022/01/27 10:40:40;;;;;;;24.92;14.57;;;11.10;64.20;;;;;;4954360;28;20066;-68
2022/01/27 10:43:15;;;;;;;16.83;13.43;;;11.10;64.00;;;;;;4956005;28;20106;-69
2022/01/27 10:46:27;;;;;;;19.05;14.18;;;11.20;63.80;;;;;;4938611;29;20036;-68
2022/01/27 10:49:01;;;;;;;22.30;13.93;;;11.40;63.80;;;;;;4952843;28;20461;-70
2022/01/27 10:51:38;;;;;;;20.90;14.23;;;11.40;63.30;;;;;;4956837;29;20376;-80
2022/01/27 10:54:06;;;;;;;26.52;15.18;;;11.50;63.60;;;;;;4955454;29;20381;-79
2022/01/27 10:56:38;;;;;;;20.35;15.20;;;11.60;63.40;;;;;;4939811;29;20055;-73
2022/01/27 10:59:10;;;;;;;29.33;16.85;;;11.70;63.20;;;;;;4956715;28;20523;-80
2022/01/27 11:01:41;;;;;;;25.17;15.85;;;11.70;63.10;;;;;;4958261;29;20035;-78
2022/01/27 11:04:12;;;;;;;20.33;14.73;;;11.80;63.00;;;;;;4956180;29;20035;-80
2022/01/27 11:06:57;;;;;;;19.80;14.55;;;11.90;62.60;;;;;;4955372;28;20034;-77
2022/01/27 11:09:23;;;;;;;30.60;15.50;;;12.10;63.00;;;;;;4955293;28;20130;-81
2022/01/27 11:11:52;;;;;;;28.35;14.55;;;12.20;62.50;;;;;;4954584;28;20030;-77
2022/01/27 11:14:19;;;;;;;23.35;15.93;;;12.30;62.30;;;;;;4938840;29;20035;-82
2022/01/27 11:16:47;;;;;;;24.30;15.00;;;12.40;61.60;;;;;;4955114;29;20030;-78
2022/01/27 11:19:34;;;;;;;22.13;14.15;;;12.40;61.30;;;;;;4938082;29;20480;-80
2022/01/27 11:27:36;;;;;;;29.50;16.42;;;12.50;61.90;;;;;;4954886;28;20031;-70
2022/01/27 11:30:44;;;;;;;21.23;15.70;;;12.60;61.00;;;;;;4954748;28;20027;-73
2022/01/27 11:33:15;;;;;;;22.65;14.20;;;12.60;61.70;;;;;;4954878;28;20027;-75
2022/01/27 11:35:43;;;;;;;22.15;15.35;;;12.70;60.60;;;;;;4954568;28;20031;-72
2022/01/27 11:38:09;;;;;;;25.00;14.77;;;12.80;60.40;;;;;;4955143;29;20034;-72
2022/01/27 11:40:42;;;;;;;18.52;14.05;;;12.90;60.20;;;;;;4954630;29;20035;-74
2022/01/27 11:43:16;;;;;;;13.93;11.07;;;12.90;61.10;;;;;;4959186;28;20067;-72
2022/01/27 11:45:54;;;;;;;21.77;14.18;;;12.90;59.80;;;;;;4954748;29;20098;-71
2022/01/27 11:48:26;;;;;;;17.90;13.48;;;13.00;60.60;;;;;;4954917;29;20041;-74
2022/01/27 11:51:13;;;;;;;19.08;13.55;;;13.00;59.80;;;;;;4954725;29;20027;-72
2022/01/27 11:53:49;;;;;;;19.95;14.23;;;13.00;60.80;;;;;;4954390;28;20042;-74
2022/01/27 11:56:23;;;;;;;22.60;14.15;;;13.00;60.00;;;;;;4955048;29;20495;-72
2022/01/27 11:59:24;;;;;;;17.35;13.30;;;13.20;59.90;;;;;;4938226;29;20055;-72
2022/01/27 12:01:58;;;;;;;26.23;17.58;;;13.20;60.60;;;;;;4937249;28;20108;-75
2022/01/27 12:04:26;;;;;;;17.20;12.27;;;13.20;59.70;;;;;;4955041;28;20027;-72
2022/01/27 12:06:56;;;;;;;18.92;12.43;;;13.20;59.80;;;;;;4937061;29;20027;-74
2022/01/27 12:09:21;;;;;;;19.73;12.73;;;13.10;60.30;;;;;;4954739;29;20448;-69
2022/01/27 12:11:56;;;;;;;19.30;12.45;;;13.10;59.80;;;;;;4954435;29;20033;-72
2022/01/27 12:14:46;;;;;;;19.17;12.20;;;13.20;60.60;;;;;;4954267;29;20035;-70
2022/01/27 12:17:16;;;;;;;20.98;11.93;;;13.30;60.10;;;;;;4956031;28;20031;-71
2022/01/27 12:19:56;;;;;;;24.00;13.20;;;13.30;59.90;;;;;;4954256;29;20118;-80
2022/01/27 12:22:49;;;;;;;14.93;11.48;;;13.40;60.30;;;;;;4954759;28;20373;-71
2022/01/27 12:25:16;;;;;;;22.35;13.32;;;13.50;59.40;;;;;;4952251;28;20039;-73
2022/01/27 12:27:50;;;;;;;16.77;12.38;;;13.70;59.70;;;;;;4958369;29;20106;-71
2022/01/27 12:30:16;;;;;;;39.10;14.10;;;13.80;58.90;;;;;;4958484;28;20035;-74
2022/01/27 12:32:42;;;;;;;19.17;12.38;;;14.00;58.60;;;;;;4941108;29;20026;-73
2022/01/27 12:35:12;;;;;;;23.25;13.30;;;14.10;58.40;;;;;;4958330;29;20027;-76
2022/01/27 12:37:40;;;;;;;17.80;10.15;;;14.20;58.20;;;;;;4958123;28;20027;-74
2022/01/27 12:40:25;;;;;;;14.02;9.20;;;14.30;57.80;;;;;;4958354;28;20034;-75
2022/01/27 12:43:01;;;;;;;14.23;10.63;;;14.30;57.30;;;;;;4958212;28;20374;-71
2022/01/27 12:45:32;;;;;;;15.95;10.60;;;14.40;57.10;;;;;;4958058;28;20027;-79
2022/01/27 12:48:07;;;;;;;12.68;8.77;;;14.50;57.40;;;;;;4941398;29;20073;-76
2022/01/27 12:50:35;;;;;;;15.75;8.88;;;14.60;56.70;;;;;;4957394;28;20031;-78
2022/01/27 12:53:07;;;;;;;12.82;7.63;;;14.70;56.80;;;;;;4958480;28;20469;-85
2022/01/27 12:55:40;;;;;;;12.60;8.13;;;14.70;56.30;;;;;;4958306;29;20122;-75
2022/01/27 12:58:17;;;;;;;11.82;7.53;;;14.70;55.90;;;;;;4958213;28;20133;-75
2022/01/27 13:00:48;;;;;;;13.82;7.90;;;14.60;55.90;;;;;;4940774;29;20368;-77
2022/01/27 13:03:15;;;;;;;14.73;7.38;;;14.50;56.50;;;;;;4957577;28;20039;-76
2022/01/27 13:05:48;;;;;;;15.38;9.63;;;14.50;56.20;;;;;;4957553;29;20121;-77
2022/01/27 13:08:19;;;;;;;14.88;8.18;;;14.50;56.20;;;;;;4957752;28;20023;-75
2022/01/27 13:10:51;;;;;;;14.38;7.72;;;14.60;56.40;;;;;;4957660;28;20023;-77
2022/01/27 13:13:21;;;;;;;15.23;9.98;;;14.70;56.60;;;;;;4957662;29;20031;-78
2022/01/27 13:16:04;;;;;;;11.77;6.35;;;14.70;56.30;;;;;;4957667;29;20035;-79
2022/01/27 13:18:40;;;;;;;13.35;6.70;;;14.70;56.10;;;;;;4957912;28;20042;-79
2022/01/27 13:21:23;;;;;;;11.60;6.55;;;14.70;55.90;;;;;;4958482;28;20055;-82
2022/01/27 13:24:01;;;;;;;12.80;6.47;;;14.60;55.90;;;;;;4958800;28;20468;-81
2022/01/27 13:26:27;;;;;;;10.50;6.18;;;14.60;56.10;;;;;;4941369;29;20042;-78
2022/01/27 13:28:57;;;;;;;10.55;6.35;;;14.60;56.00;;;;;;4958801;28;20031;-79
2022/01/27 13:31:25;;;;;;;10.52;6.35;;;14.60;56.00;;;;;;4958861;28;20046;-73
2022/01/27 13:33:51;;;;;;;9.50;6.25;;;14.60;55.90;;;;;;4957459;28;20019;-72